createdAt,value
2018-12-27T00:00:17.209Z,-1.57
2018-12-27T00:01:17.203Z,-1.62
2018-12-27T00:02:17.188Z,-1.61
2018-12-27T00:03:17.236Z,-1.61
2018-12-27T00:04:17.171Z,-1.62
2018-12-27T00:05:17.158Z,-1.64
2018-12-27T00:06:17.163Z,-1.54
2018-12-27T00:07:17.157Z,-1.50
2018-12-27T00:08:17.145Z,-1.64
2018-12-27T00:09:17.174Z,-1.50
2018-12-27T00:10:17.124Z,-1.53
2018-12-27T00:11:17.174Z,-1.56
2018-12-27T00:12:17.087Z,-1.56
2018-12-27T00:13:17.118Z,-1.62
2018-12-27T00:14:17.074Z,-1.64
2018-12-27T00:15:17.072Z,-1.56
2018-12-27T00:16:17.040Z,-1.62
2018-12-27T00:17:17.037Z,-1.54
2018-12-27T00:18:17.078Z,-1.65
2018-12-27T00:19:17.032Z,-1.61
2018-12-27T00:20:16.998Z,-1.70
2018-12-27T00:21:17.062Z,-1.62
2018-12-27T00:22:16.981Z,-1.53
2018-12-27T00:23:16.971Z,-1.50
2018-12-27T00:24:17.026Z,-1.59
2018-12-27T00:25:16.946Z,-1.50
2018-12-27T00:26:16.936Z,-1.56
2018-12-27T00:27:16.965Z,-1.53
2018-12-27T00:28:16.956Z,-1.53
2018-12-27T00:29:16.918Z,-1.53
2018-12-27T00:30:16.916Z,-1.56
2018-12-27T00:31:16.884Z,-1.54
2018-12-27T00:32:16.877Z,-1.54
2018-12-27T00:33:16.868Z,-1.50
2018-12-27T00:34:16.898Z,-1.46
2018-12-27T00:35:16.844Z,-1.44
2018-12-27T00:36:16.846Z,-1.39
2018-12-27T00:37:16.832Z,-1.39
2018-12-27T00:38:16.845Z,-1.41
2018-12-27T00:39:16.827Z,-1.44
2018-12-27T00:40:16.827Z,-1.44
2018-12-27T00:41:16.779Z,-1.43
2018-12-27T00:42:16.771Z,-1.43
2018-12-27T00:43:16.761Z,-1.41
2018-12-27T00:44:16.767Z,-1.44
2018-12-27T00:45:16.756Z,-1.43
2018-12-27T00:46:16.729Z,-1.49
2018-12-27T00:47:16.717Z,-1.50
2018-12-27T00:48:16.710Z,-1.57
2018-12-27T00:49:16.711Z,-1.57
2018-12-27T00:50:16.747Z,-1.47
2018-12-27T00:51:16.679Z,-1.53
2018-12-27T00:52:16.692Z,-1.61
2018-12-27T00:53:16.665Z,-1.59
2018-12-27T00:54:16.680Z,-1.56
2018-12-27T00:55:16.636Z,-1.51
2018-12-27T00:56:16.658Z,-1.65
2018-12-27T00:57:16.613Z,-1.68
2018-12-27T00:58:16.625Z,-1.71
2018-12-27T00:59:16.608Z,-1.65
2018-12-27T01:00:16.597Z,-1.68
2018-12-27T01:01:16.578Z,-1.56
2018-12-27T01:02:16.564Z,-1.70
2018-12-27T01:03:16.562Z,-1.62
2018-12-27T01:04:16.558Z,-1.70
2018-12-27T01:05:16.528Z,-1.61
2018-12-27T01:06:16.578Z,-1.65
2018-12-27T01:07:16.516Z,-1.61
2018-12-27T01:08:16.507Z,-1.51
2018-12-27T01:09:16.503Z,-1.64
2018-12-27T01:10:16.493Z,-1.62
2018-12-27T01:11:16.468Z,-1.54
2018-12-27T01:12:16.455Z,-1.51
2018-12-27T01:13:16.472Z,-1.61
2018-12-27T01:14:16.447Z,-1.56
2018-12-27T01:15:16.426Z,-1.51
2018-12-27T01:16:16.426Z,-1.54
2018-12-27T01:17:16.433Z,-1.59
2018-12-27T01:18:16.393Z,-1.53
2018-12-27T01:19:16.409Z,-1.56
2018-12-27T01:20:16.374Z,-1.54
2018-12-27T01:21:16.362Z,-1.54
2018-12-27T01:22:16.394Z,-1.51
2018-12-27T01:23:16.343Z,-1.59
2018-12-27T01:24:16.341Z,-1.59
2018-12-27T01:25:16.342Z,-1.56
2018-12-27T01:26:16.316Z,-1.61
2018-12-27T01:27:16.302Z,-1.53
2018-12-27T01:28:16.313Z,-1.54
2018-12-27T01:29:16.277Z,-1.53
2018-12-27T01:30:16.283Z,-1.51
2018-12-27T01:31:16.283Z,-1.44
2018-12-27T01:32:16.266Z,-1.46
2018-12-27T01:33:18.879Z,-1.56
2018-12-27T01:34:16.269Z,-1.56
2018-12-27T01:35:16.232Z,-1.57
2018-12-27T01:36:16.203Z,-1.46
2018-12-27T01:37:16.195Z,-1.43
2018-12-27T01:38:16.186Z,-1.53
2018-12-27T01:39:16.179Z,-1.56
2018-12-27T01:40:16.178Z,-1.51
2018-12-27T01:41:16.193Z,-1.50
2018-12-27T01:42:16.142Z,-1.56
2018-12-27T01:43:16.138Z,-1.50
2018-12-27T01:44:16.141Z,-1.50
2018-12-27T01:45:16.126Z,-1.62
2018-12-27T01:46:16.106Z,-1.61
2018-12-27T01:47:16.092Z,-1.61
2018-12-27T01:48:16.078Z,-1.57
2018-12-27T01:49:16.126Z,-1.61
2018-12-27T01:50:16.071Z,-1.64
2018-12-27T01:51:16.048Z,-1.67
2018-12-27T01:52:16.038Z,-1.53
2018-12-27T01:53:16.029Z,-1.54
2018-12-27T01:54:16.022Z,-1.53
2018-12-27T01:55:16.021Z,-1.54
2018-12-27T01:56:15.995Z,-1.62
2018-12-27T01:57:16.007Z,-1.62
2018-12-27T01:58:15.978Z,-1.65
2018-12-27T01:59:15.967Z,-1.62
2018-12-27T02:00:15.969Z,-1.64
2018-12-27T02:01:15.943Z,-1.77
2018-12-27T02:02:15.944Z,-1.65
2018-12-27T02:03:15.924Z,-1.71
2018-12-27T02:04:15.913Z,-1.72
2018-12-27T02:05:15.948Z,-1.71
2018-12-27T02:06:15.891Z,-1.72
2018-12-27T02:07:15.881Z,-1.67
2018-12-27T02:08:15.869Z,-1.77
2018-12-27T02:09:15.859Z,-1.72
2018-12-27T02:10:15.896Z,-1.62
2018-12-27T02:11:15.839Z,-1.71
2018-12-27T02:12:15.865Z,-1.71
2018-12-27T02:13:15.823Z,-1.72
2018-12-27T02:14:15.823Z,-1.71
2018-12-27T02:15:15.824Z,-1.71
2018-12-27T02:16:15.825Z,-1.67
2018-12-27T02:17:15.783Z,-1.75
2018-12-27T02:18:15.770Z,-1.67
2018-12-27T02:19:15.755Z,-1.70
2018-12-27T02:20:15.746Z,-1.77
2018-12-27T02:21:15.752Z,-1.71
2018-12-27T02:22:15.735Z,-1.71
2018-12-27T02:23:15.737Z,-1.67
2018-12-27T02:24:15.712Z,-1.75
2018-12-27T02:25:15.707Z,-1.70
2018-12-27T02:26:15.697Z,-1.67
2018-12-27T02:27:15.729Z,-1.74
2018-12-27T02:28:15.665Z,-1.78
2018-12-27T02:29:15.671Z,-1.80
2018-12-27T02:30:15.673Z,-1.72
2018-12-27T02:31:15.658Z,-1.75
2018-12-27T02:32:15.625Z,-1.78
2018-12-27T02:33:15.611Z,-1.71
2018-12-27T02:34:15.598Z,-1.75
2018-12-27T02:35:15.610Z,-1.80
2018-12-27T02:36:15.622Z,-1.78
2018-12-27T02:37:15.585Z,-1.78
2018-12-27T02:38:15.555Z,-1.75
2018-12-27T02:39:15.545Z,-1.83
2018-12-27T02:40:15.541Z,-1.78
2018-12-27T02:41:15.543Z,-1.83
2018-12-27T02:42:15.517Z,-1.80
2018-12-27T02:43:15.527Z,-1.71
2018-12-27T02:44:15.498Z,-1.74
2018-12-27T02:45:15.494Z,-1.71
2018-12-27T02:46:15.502Z,-1.74
2018-12-27T02:47:15.468Z,-1.77
2018-12-27T02:48:15.464Z,-1.78
2018-12-27T02:49:15.440Z,-1.72
2018-12-27T02:50:15.431Z,-1.72
2018-12-27T02:51:15.446Z,-1.75
2018-12-27T02:52:15.419Z,-1.75
2018-12-27T02:53:15.409Z,-1.78
2018-12-27T02:54:15.419Z,-1.74
2018-12-27T02:55:15.383Z,-1.80
2018-12-27T02:56:15.427Z,-1.92
2018-12-27T02:57:15.363Z,-1.86
2018-12-27T02:58:15.352Z,-1.86
2018-12-27T02:59:15.343Z,-1.89
2018-12-27T03:00:15.339Z,-1.86
2018-12-27T03:01:15.322Z,-1.82
2018-12-27T03:02:15.376Z,-1.90
2018-12-27T03:03:15.297Z,-1.88
2018-12-27T03:04:15.335Z,-1.90
2018-12-27T03:05:15.287Z,-1.89
2018-12-27T03:06:15.265Z,-1.90
2018-12-27T03:07:15.266Z,-1.82
2018-12-27T03:08:15.248Z,-1.88
2018-12-27T03:09:15.267Z,-1.88
2018-12-27T03:10:15.222Z,-1.90
2018-12-27T03:11:15.227Z,-1.90
2018-12-27T03:12:15.235Z,-1.92
2018-12-27T03:13:15.190Z,-1.89
2018-12-27T03:14:15.182Z,-1.96
2018-12-27T03:15:15.173Z,-1.92
2018-12-27T03:16:15.164Z,-1.92
2018-12-27T03:17:15.164Z,-1.89
2018-12-27T03:18:15.140Z,-1.90
2018-12-27T03:19:15.158Z,-1.93
2018-12-27T03:20:15.150Z,-1.93
2018-12-27T03:21:15.141Z,-1.93
2018-12-27T03:22:15.110Z,-1.96
2018-12-27T03:23:15.087Z,-2.08
2018-12-27T03:24:15.074Z,-2.10
2018-12-27T03:25:15.081Z,-2.07
2018-12-27T03:26:15.092Z,-2.10
2018-12-27T03:27:15.067Z,-2.07
2018-12-27T03:28:15.062Z,-2.08
2018-12-27T03:29:15.021Z,-2.10
2018-12-27T03:30:15.039Z,-2.07
2018-12-27T03:31:15.029Z,-2.11
2018-12-27T03:32:15.016Z,-2.11
2018-12-27T03:33:14.982Z,-2.07
2018-12-27T03:34:14.988Z,-2.06
2018-12-27T03:35:14.978Z,-2.07
2018-12-27T03:36:14.952Z,-2.08
2018-12-27T03:37:14.951Z,-2.11
2018-12-27T03:38:14.935Z,-2.04
2018-12-27T03:39:14.917Z,-2.10
2018-12-27T03:40:14.905Z,-2.08
2018-12-27T03:41:14.901Z,-2.11
2018-12-27T03:42:14.902Z,-2.21
2018-12-27T03:43:14.903Z,-2.18
2018-12-27T03:44:14.893Z,-2.18
2018-12-27T03:45:14.856Z,-2.22
2018-12-27T03:46:14.848Z,-2.11
2018-12-27T03:47:14.850Z,-2.16
2018-12-27T03:48:14.820Z,-2.10
2018-12-27T03:49:14.850Z,-2.10
2018-12-27T03:50:14.805Z,-2.00
2018-12-27T03:51:14.789Z,-2.03
2018-12-27T03:52:14.856Z,-2.14
2018-12-27T03:53:14.768Z,-2.08
2018-12-27T03:54:14.768Z,-2.08
2018-12-27T03:55:14.750Z,-2.08
2018-12-27T03:56:14.740Z,-2.10
2018-12-27T03:57:14.802Z,-2.10
2018-12-27T03:58:14.717Z,-2.08
2018-12-27T03:59:14.713Z,-1.98
2018-12-27T04:00:14.761Z,-2.08
2018-12-27T04:01:14.688Z,-1.93
2018-12-27T04:02:14.696Z,-2.07
2018-12-27T04:03:14.663Z,-2.10
2018-12-27T04:04:14.655Z,-2.08
2018-12-27T04:05:14.651Z,-2.10
2018-12-27T04:06:14.632Z,-2.11
2018-12-27T04:07:14.673Z,-2.11
2018-12-27T04:08:14.621Z,-2.11
2018-12-27T04:09:14.607Z,-2.06
2018-12-27T04:10:14.591Z,-2.08
2018-12-27T04:11:14.582Z,-2.22
2018-12-27T04:12:14.585Z,-2.16
2018-12-27T04:13:14.562Z,-2.14
2018-12-27T04:14:14.551Z,-2.04
2018-12-27T04:15:14.551Z,-2.14
2018-12-27T04:16:14.531Z,-2.14
2018-12-27T04:17:14.548Z,-2.18
2018-12-27T04:18:14.506Z,-2.11
2018-12-27T04:19:14.495Z,-2.19
2018-12-27T04:20:14.492Z,-2.22
2018-12-27T04:21:14.476Z,-2.21
2018-12-27T04:22:14.470Z,-2.21
2018-12-27T04:23:14.496Z,-2.28
2018-12-27T04:24:14.451Z,-2.24
2018-12-27T04:25:14.434Z,-2.19
2018-12-27T04:26:14.426Z,-2.21
2018-12-27T04:27:14.414Z,-2.26
2018-12-27T04:28:14.421Z,-2.33
2018-12-27T04:29:14.399Z,-2.33
2018-12-27T04:30:14.386Z,-2.32
2018-12-27T04:31:14.411Z,-2.29
2018-12-27T04:32:14.378Z,-2.33
2018-12-27T04:33:14.378Z,-2.29
2018-12-27T04:34:14.342Z,-2.40
2018-12-27T04:35:14.333Z,-2.35
2018-12-27T04:36:14.327Z,-2.38
2018-12-27T04:37:14.320Z,-2.40
2018-12-27T04:38:14.314Z,-2.33
2018-12-27T04:39:14.287Z,-2.33
2018-12-27T04:40:14.277Z,-2.33
2018-12-27T04:41:14.265Z,-2.38
2018-12-27T04:42:14.260Z,-2.43
2018-12-27T04:43:14.281Z,-2.29
2018-12-27T04:44:14.251Z,-2.35
2018-12-27T04:45:14.224Z,-2.37
2018-12-27T04:46:14.217Z,-2.35
2018-12-27T04:47:14.237Z,-2.32
2018-12-27T04:48:14.205Z,-2.35
2018-12-27T04:49:14.182Z,-2.37
2018-12-27T04:50:14.173Z,-2.44
2018-12-27T04:51:14.161Z,-2.25
2018-12-27T04:52:14.164Z,-2.43
2018-12-27T04:53:14.157Z,-2.43
2018-12-27T04:54:14.133Z,-2.38
2018-12-27T04:55:14.160Z,-2.32
2018-12-27T04:56:14.119Z,-2.33
2018-12-27T04:57:14.128Z,-2.29
2018-12-27T04:58:14.108Z,-2.43
2018-12-27T04:59:14.077Z,-2.37
2018-12-27T05:00:14.085Z,-2.38
2018-12-27T05:01:14.059Z,-2.38
2018-12-27T05:02:14.087Z,-2.41
2018-12-27T05:03:14.093Z,-2.33
2018-12-27T05:04:18.012Z,-2.37
2018-12-27T05:05:14.018Z,-2.33
2018-12-27T05:06:14.017Z,-2.38
2018-12-27T05:07:13.996Z,-2.38
2018-12-27T05:08:14.001Z,-2.33
2018-12-27T05:09:13.978Z,-2.33
2018-12-27T05:10:13.963Z,-2.37
2018-12-27T05:11:13.991Z,-2.28
2018-12-27T05:12:13.943Z,-2.37
2018-12-27T05:13:13.984Z,-2.32
2018-12-27T05:14:13.922Z,-2.32
2018-12-27T05:15:13.928Z,-2.37
2018-12-27T05:16:13.904Z,-2.35
2018-12-27T05:17:13.889Z,-2.37
2018-12-27T05:18:13.927Z,-2.29
2018-12-27T05:19:13.898Z,-2.28
2018-12-27T05:20:13.859Z,-2.26
2018-12-27T05:21:13.871Z,-2.28
2018-12-27T05:22:13.837Z,-2.25
2018-12-27T05:23:13.848Z,-2.25
2018-12-27T05:24:13.815Z,-2.18
2018-12-27T05:25:13.841Z,-2.24
2018-12-27T05:26:13.848Z,-2.18
2018-12-27T05:27:13.791Z,-2.24
2018-12-27T05:28:13.790Z,-2.24
2018-12-27T05:29:13.766Z,-2.25
2018-12-27T05:30:13.766Z,-2.22
2018-12-27T05:31:13.765Z,-2.25
2018-12-27T05:32:13.732Z,-2.22
2018-12-27T05:33:13.793Z,-2.33
2018-12-27T05:34:13.713Z,-2.33
2018-12-27T05:35:13.709Z,-2.28
2018-12-27T05:36:13.689Z,-2.28
2018-12-27T05:37:13.677Z,-2.24
2018-12-27T05:38:13.686Z,-2.26
2018-12-27T05:39:13.660Z,-2.29
2018-12-27T05:40:13.646Z,-2.37
2018-12-27T05:41:13.639Z,-2.32
2018-12-27T05:42:13.686Z,-2.33
2018-12-27T05:43:13.666Z,-2.35
2018-12-27T05:44:13.606Z,-2.35
2018-12-27T05:45:13.601Z,-2.32
2018-12-27T05:46:13.603Z,-2.29
2018-12-27T05:47:13.573Z,-2.28
2018-12-27T05:48:13.565Z,-2.37
2018-12-27T05:49:13.577Z,-2.32
2018-12-27T05:50:13.560Z,-2.35
2018-12-27T05:51:13.533Z,-2.35
2018-12-27T05:52:13.520Z,-2.40
2018-12-27T05:53:13.556Z,-2.48
2018-12-27T05:54:13.519Z,-2.38
2018-12-27T05:55:13.508Z,-2.43
2018-12-27T05:56:13.530Z,-2.46
2018-12-27T05:57:13.467Z,-2.40
2018-12-27T05:58:13.472Z,-2.37
2018-12-27T05:59:13.471Z,-2.38
2018-12-27T06:00:13.443Z,-2.35
2018-12-27T06:01:13.474Z,-2.37
2018-12-27T06:02:13.465Z,-2.32
2018-12-27T06:03:13.411Z,-2.32
2018-12-27T06:04:13.411Z,-2.37
2018-12-27T06:05:13.400Z,-2.41
2018-12-27T06:06:13.401Z,-2.41
2018-12-27T06:07:13.371Z,-2.41
2018-12-27T06:08:13.352Z,-2.41
2018-12-27T06:09:13.355Z,-2.41
2018-12-27T06:10:13.333Z,-2.41
2018-12-27T06:11:13.321Z,-2.44
2018-12-27T06:12:13.355Z,-2.38
2018-12-27T06:13:13.306Z,-2.37
2018-12-27T06:14:13.304Z,-2.44
2018-12-27T06:15:13.281Z,-2.38
2018-12-27T06:16:13.268Z,-2.46
2018-12-27T06:17:13.257Z,-2.47
2018-12-27T06:18:13.253Z,-2.46
2018-12-27T06:19:13.286Z,-2.41
2018-12-27T06:20:13.225Z,-2.43
2018-12-27T06:21:13.223Z,-2.46
2018-12-27T06:22:13.205Z,-2.47
2018-12-27T06:23:13.198Z,-2.48
2018-12-27T06:24:13.203Z,-2.50
2018-12-27T06:25:13.204Z,-2.46
2018-12-27T06:26:13.165Z,-2.48
2018-12-27T06:27:13.153Z,-2.41
2018-12-27T06:28:13.161Z,-2.43
2018-12-27T06:29:13.151Z,-2.50
2018-12-27T06:30:13.121Z,-2.46
2018-12-27T06:31:13.129Z,-2.46
2018-12-27T06:32:13.125Z,-2.47
2018-12-27T06:33:13.091Z,-2.46
2018-12-27T06:34:13.092Z,-2.41
2018-12-27T06:35:13.070Z,-2.48
2018-12-27T06:36:13.057Z,-2.37
2018-12-27T06:37:13.065Z,-2.38
2018-12-27T06:38:13.038Z,-2.48
2018-12-27T06:39:13.042Z,-2.46
2018-12-27T06:40:13.041Z,-2.46
2018-12-27T06:41:13.040Z,-2.38
2018-12-27T06:42:12.997Z,-2.44
2018-12-27T06:43:13.003Z,-2.37
2018-12-27T06:44:12.981Z,-2.37
2018-12-27T06:45:12.983Z,-2.41
2018-12-27T06:46:12.952Z,-2.41
2018-12-27T06:47:12.944Z,-2.40
2018-12-27T06:48:12.930Z,-2.47
2018-12-27T06:49:12.924Z,-2.41
2018-12-27T06:50:12.958Z,-2.37
2018-12-27T06:51:12.909Z,-2.37
2018-12-27T06:52:12.912Z,-2.32
2018-12-27T06:53:12.884Z,-2.29
2018-12-27T06:54:12.871Z,-2.38
2018-12-27T06:55:12.871Z,-2.38
2018-12-27T06:56:12.854Z,-2.44
2018-12-27T06:57:12.840Z,-2.37
2018-12-27T06:58:12.841Z,-2.44
2018-12-27T06:59:12.839Z,-2.33
2018-12-27T07:00:12.818Z,-2.35
2018-12-27T07:01:12.806Z,-2.29
2018-12-27T07:02:12.784Z,-2.32
2018-12-27T07:03:12.826Z,-2.43
2018-12-27T07:04:12.793Z,-2.38
2018-12-27T07:05:12.773Z,-2.38
2018-12-27T07:06:12.745Z,-2.43
2018-12-27T07:07:12.746Z,-2.35
2018-12-27T07:08:12.722Z,-2.35
2018-12-27T07:09:12.712Z,-2.41
2018-12-27T07:10:12.715Z,-2.37
2018-12-27T07:11:12.689Z,-2.37
2018-12-27T07:12:12.717Z,-2.32
2018-12-27T07:13:12.676Z,-2.40
2018-12-27T07:14:12.677Z,-2.40
2018-12-27T07:15:12.671Z,-2.33
2018-12-27T07:16:12.667Z,-2.33
2018-12-27T07:17:12.636Z,-2.32
2018-12-27T07:18:12.615Z,-2.37
2018-12-27T07:19:12.608Z,-2.37
2018-12-27T07:20:12.618Z,-2.38
2018-12-27T07:21:12.591Z,-2.29
2018-12-27T07:22:12.607Z,-2.32
2018-12-27T07:23:12.563Z,-2.37
2018-12-27T07:24:12.554Z,-2.37
2018-12-27T07:25:12.557Z,-2.35
2018-12-27T07:26:12.563Z,-2.33
2018-12-27T07:27:12.551Z,-2.26
2018-12-27T07:28:12.514Z,-2.29
2018-12-27T07:29:12.532Z,-2.35
2018-12-27T07:30:12.508Z,-2.38
2018-12-27T07:31:12.514Z,-2.29
2018-12-27T07:32:12.475Z,-2.33
2018-12-27T07:33:12.480Z,-2.29
2018-12-27T07:34:12.459Z,-2.38
2018-12-27T07:35:12.475Z,-2.33
2018-12-27T07:36:12.472Z,-2.33
2018-12-27T07:37:12.424Z,-2.38
2018-12-27T07:38:12.406Z,-2.33
2018-12-27T07:39:12.397Z,-2.47
2018-12-27T07:40:12.395Z,-2.35
2018-12-27T07:41:12.389Z,-2.37
2018-12-27T07:42:12.395Z,-2.41
2018-12-27T07:43:12.353Z,-2.32
2018-12-27T07:44:12.354Z,-2.37
2018-12-27T07:45:12.376Z,-2.26
2018-12-27T07:46:12.337Z,-2.33
2018-12-27T07:47:12.323Z,-2.28
2018-12-27T07:48:12.301Z,-2.37
2018-12-27T07:49:12.332Z,-2.22
2018-12-27T07:50:12.282Z,-2.33
2018-12-27T07:51:12.308Z,-2.40
2018-12-27T07:52:12.257Z,-2.38
2018-12-27T07:53:12.301Z,-2.32
2018-12-27T07:54:12.242Z,-2.35
2018-12-27T07:55:12.235Z,-2.35
2018-12-27T07:56:12.232Z,-2.33
2018-12-27T07:57:12.210Z,-2.37
2018-12-27T07:58:12.196Z,-2.29
2018-12-27T07:59:12.203Z,-2.40
2018-12-27T08:00:12.188Z,-2.40
2018-12-27T08:01:12.195Z,-2.35
2018-12-27T08:02:12.179Z,-2.28
2018-12-27T08:03:12.146Z,-2.40
2018-12-27T08:04:12.146Z,-2.33
2018-12-27T08:05:12.123Z,-2.35
2018-12-27T08:06:12.166Z,-2.32
2018-12-27T08:07:12.106Z,-2.35
2018-12-27T08:08:12.090Z,-2.37
2018-12-27T08:09:12.085Z,-2.38
2018-12-27T08:10:12.072Z,-2.38
2018-12-27T08:11:12.073Z,-2.33
2018-12-27T08:12:12.092Z,-2.29
2018-12-27T08:13:12.068Z,-2.35
2018-12-27T08:14:12.034Z,-2.22
2018-12-27T08:15:12.015Z,-2.28
2018-12-27T08:16:12.060Z,-2.26
2018-12-27T08:17:11.995Z,-2.07
2018-12-27T08:18:11.985Z,-2.11
2018-12-27T08:19:11.978Z,-2.13
2018-12-27T08:20:11.971Z,-2.13
2018-12-27T08:21:11.979Z,-2.06
2018-12-27T08:22:11.943Z,-1.95
2018-12-27T08:23:11.968Z,-1.96
2018-12-27T08:24:11.952Z,-1.98
2018-12-27T08:25:11.914Z,-2.03
2018-12-27T08:26:11.924Z,-2.04
2018-12-27T08:27:11.959Z,-1.98
2018-12-27T08:28:11.879Z,-1.83
2018-12-27T08:29:11.871Z,-1.85
2018-12-27T08:30:11.868Z,-1.80
2018-12-27T08:31:12.164Z,-1.83
2018-12-27T08:32:11.854Z,-1.88
2018-12-27T08:33:11.836Z,-1.95
2018-12-27T08:34:11.818Z,-1.92
2018-12-27T08:35:11.887Z,-1.96
2018-12-27T08:36:11.812Z,-1.92
2018-12-27T08:37:11.829Z,-1.80
2018-12-27T08:38:11.777Z,-1.85
2018-12-27T08:39:11.766Z,-1.92
2018-12-27T08:40:11.760Z,-1.83
2018-12-27T08:41:11.771Z,-1.95
2018-12-27T08:42:12.659Z,-1.88
2018-12-27T08:43:11.725Z,-1.89
2018-12-27T08:44:11.750Z,-1.80
2018-12-27T08:45:11.701Z,-1.75
2018-12-27T08:46:11.692Z,-1.70
2018-12-27T08:47:11.698Z,-1.67
2018-12-27T08:48:11.671Z,-1.64
2018-12-27T08:49:11.667Z,-1.70
2018-12-27T08:50:11.671Z,-1.62
2018-12-27T08:51:11.639Z,-1.65
2018-12-27T08:52:11.646Z,-1.57
2018-12-27T08:53:11.621Z,-1.54
2018-12-27T08:54:11.627Z,-1.64
2018-12-27T08:55:11.597Z,-1.70
2018-12-27T08:56:11.650Z,-1.70
2018-12-27T08:57:11.616Z,-1.82
2018-12-27T08:58:11.580Z,-1.88
2018-12-27T08:59:11.574Z,-1.85
2018-12-27T09:00:11.545Z,-1.77
2018-12-27T09:01:11.541Z,-1.74
2018-12-27T09:02:11.538Z,-1.68
2018-12-27T09:03:11.515Z,-1.64
2018-12-27T09:04:11.505Z,-1.71
2018-12-27T09:05:18.670Z,-1.67
2018-12-27T09:06:12.479Z,-1.68
2018-12-27T09:07:11.488Z,-1.61
2018-12-27T09:08:11.474Z,-1.61
2018-12-27T09:09:11.453Z,-1.57
2018-12-27T09:10:11.439Z,-1.47
2018-12-27T09:11:11.429Z,-1.44
2018-12-27T09:12:11.451Z,-1.43
2018-12-27T09:13:11.407Z,-1.39
2018-12-27T09:14:11.401Z,-1.36
2018-12-27T09:15:11.418Z,-1.46
2018-12-27T09:16:11.381Z,-1.53
2018-12-27T09:17:11.381Z,-1.41
2018-12-27T09:18:11.354Z,-1.44
2018-12-27T09:19:11.343Z,-1.51
2018-12-27T09:20:11.336Z,-1.65
2018-12-27T09:21:11.360Z,-1.67
2018-12-27T09:22:11.343Z,-1.61
2018-12-27T09:23:11.303Z,-1.59
2018-12-27T09:24:11.297Z,-1.54
2018-12-27T09:25:11.283Z,-1.56
2018-12-27T09:26:11.296Z,-1.59
2018-12-27T09:27:11.290Z,-1.53
2018-12-27T09:28:11.257Z,-1.54
2018-12-27T09:29:11.294Z,-1.49
2018-12-27T09:30:11.228Z,-1.43
2018-12-27T09:31:11.218Z,-1.44
2018-12-27T09:32:11.256Z,-1.43
2018-12-27T09:33:11.214Z,-1.57
2018-12-27T09:34:11.192Z,-1.64
2018-12-27T09:35:11.194Z,-1.54
2018-12-27T09:36:11.201Z,-1.44
2018-12-27T09:37:11.177Z,-1.39
2018-12-27T09:38:11.163Z,-1.33
2018-12-27T09:39:11.134Z,-1.26
2018-12-27T09:40:11.152Z,-1.23
2018-12-27T09:41:11.133Z,-1.15
2018-12-27T09:42:11.104Z,-1.11
2018-12-27T09:43:11.113Z,-1.17
2018-12-27T09:44:11.102Z,-1.18
2018-12-27T09:45:11.101Z,-1.26
2018-12-27T09:46:11.078Z,-1.25
2018-12-27T09:47:11.050Z,-1.23
2018-12-27T09:48:11.055Z,-1.18
2018-12-27T09:49:11.031Z,-1.14
2018-12-27T09:50:11.025Z,-1.14
2018-12-27T09:51:11.010Z,-1.17
2018-12-27T09:52:11.026Z,-1.26
2018-12-27T09:53:11.002Z,-1.23
2018-12-27T09:54:10.978Z,-1.11
2018-12-27T09:55:10.977Z,-1.02
2018-12-27T09:56:10.966Z,-0.99
2018-12-27T09:57:10.946Z,-0.85
2018-12-27T09:58:10.961Z,-0.83
2018-12-27T09:59:10.935Z,-0.86
2018-12-27T10:00:10.955Z,-0.81
2018-12-27T10:01:10.905Z,-0.86
2018-12-27T10:02:10.896Z,-0.96
2018-12-27T10:03:10.908Z,-1.00
2018-12-27T10:04:10.873Z,-1.03
2018-12-27T10:05:10.891Z,-0.99
2018-12-27T10:06:10.882Z,-0.81
2018-12-27T10:07:10.847Z,-0.78
2018-12-27T10:08:10.848Z,-0.70
2018-12-27T10:09:10.820Z,-0.62
2018-12-27T10:10:10.809Z,-0.63
2018-12-27T10:11:10.802Z,-0.53
2018-12-27T10:12:10.818Z,-0.52
2018-12-27T10:13:10.797Z,-0.27
2018-12-27T10:14:10.774Z,-0.39
2018-12-27T10:15:10.763Z,-0.30
2018-12-27T10:16:10.746Z,-0.24
2018-12-27T10:17:10.762Z,-0.26
2018-12-27T10:18:10.747Z,-0.20
2018-12-27T10:19:10.719Z,-0.19
2018-12-27T10:20:10.708Z,0.12
2018-12-27T10:21:10.713Z,0.19
2018-12-27T10:22:10.680Z,0.33
2018-12-27T10:23:10.684Z,0.28
2018-12-27T10:24:10.662Z,0.37
2018-12-27T10:25:10.683Z,0.26
2018-12-27T10:26:10.645Z,0.25
2018-12-27T10:27:10.633Z,0.28
2018-12-27T10:28:10.634Z,0.37
2018-12-27T10:29:10.607Z,0.26
2018-12-27T10:30:10.601Z,0.12
2018-12-27T10:31:10.617Z,0.16
2018-12-27T10:32:10.578Z,0.33
2018-12-27T10:33:10.586Z,0.40
2018-12-27T10:34:10.552Z,0.23
2018-12-27T10:35:10.543Z,0.07
2018-12-27T10:36:10.534Z,0.23
2018-12-27T10:37:10.533Z,0.20
2018-12-27T10:38:10.524Z,0.17
2018-12-27T10:39:10.499Z,0.23
2018-12-27T10:40:10.490Z,0.31
2018-12-27T10:41:10.480Z,0.48
2018-12-27T10:42:10.469Z,0.37
2018-12-27T10:43:10.472Z,0.08
2018-12-27T10:44:10.469Z,0.08
2018-12-27T10:45:10.444Z,-0.05
2018-12-27T10:46:10.445Z,-0.16
2018-12-27T10:47:10.417Z,-0.27
2018-12-27T10:48:10.421Z,-0.32
2018-12-27T10:49:10.397Z,-0.45
2018-12-27T10:50:10.394Z,-0.53
2018-12-27T10:51:10.373Z,-0.38
2018-12-27T10:52:10.361Z,-0.58
2018-12-27T10:53:10.442Z,-0.50
2018-12-27T10:54:10.343Z,-0.52
2018-12-27T10:55:10.330Z,-0.47
2018-12-27T10:56:10.325Z,-0.62
2018-12-27T10:57:10.324Z,-0.85
2018-12-27T10:58:10.298Z,-0.90
2018-12-27T10:59:10.301Z,-0.74
2018-12-27T11:00:10.278Z,-0.67
2018-12-27T11:01:10.286Z,-0.52
2018-12-27T11:02:10.262Z,-0.34
2018-12-27T11:03:10.319Z,-0.09
2018-12-27T11:04:10.251Z,-0.13
2018-12-27T11:05:10.227Z,-0.17
2018-12-27T11:06:10.213Z,-0.09
2018-12-27T11:07:10.203Z,-0.09
2018-12-27T11:08:10.216Z,-0.23
2018-12-27T11:09:10.201Z,-0.17
2018-12-27T11:10:11.374Z,-0.23
2018-12-27T11:11:10.159Z,-0.20
2018-12-27T11:12:10.152Z,-0.37
2018-12-27T11:13:10.140Z,-0.41
2018-12-27T11:14:10.142Z,-0.34
2018-12-27T11:15:10.145Z,-0.19
2018-12-27T11:16:10.122Z,-0.14
2018-12-27T11:17:10.098Z,0.01
2018-12-27T11:18:10.102Z,0.16
2018-12-27T11:19:10.102Z,0.43
2018-12-27T11:20:10.114Z,0.45
2018-12-27T11:21:10.053Z,0.60
2018-12-27T11:22:10.079Z,0.74
2018-12-27T11:23:10.060Z,0.84
2018-12-27T11:24:10.036Z,1.00
2018-12-27T11:25:10.017Z,0.99
2018-12-27T11:26:10.005Z,0.74
2018-12-27T11:27:09.990Z,0.34
2018-12-27T11:28:09.980Z,0.05
2018-12-27T11:29:10.028Z,0.04
2018-12-27T11:30:09.986Z,0.31
2018-12-27T11:31:09.952Z,0.56
2018-12-27T11:32:09.942Z,0.15
2018-12-27T11:33:09.934Z,0.08
2018-12-27T11:34:09.931Z,0.19
2018-12-27T11:35:09.940Z,0.26
2018-12-27T11:36:16.991Z,0.19
2018-12-27T11:37:10.896Z,0.10
2018-12-27T11:38:09.875Z,0.15
2018-12-27T11:39:09.903Z,0.31
2018-12-27T11:40:09.897Z,0.44
2018-12-27T11:41:09.847Z,0.37
2018-12-27T11:42:09.834Z,0.17
2018-12-27T11:43:09.860Z,-0.01
2018-12-27T11:44:09.828Z,0.05
2018-12-27T11:45:09.804Z,0.01
2018-12-27T11:46:09.793Z,0.04
2018-12-27T11:47:09.777Z,0.10
2018-12-27T11:48:09.769Z,0.05
2018-12-27T11:49:09.876Z,-0.01
2018-12-27T11:50:09.753Z,0.05
2018-12-27T11:51:09.741Z,0.15
2018-12-27T11:52:09.758Z,0.22
2018-12-27T11:53:09.722Z,0.28
2018-12-27T11:54:09.717Z,0.63
2018-12-27T11:55:09.695Z,0.86
2018-12-27T11:56:09.723Z,0.84
2018-12-27T11:57:09.680Z,0.62
2018-12-27T11:58:09.679Z,0.67
2018-12-27T11:59:09.734Z,0.62
2018-12-27T12:00:09.642Z,0.62
2018-12-27T12:01:09.629Z,0.56
2018-12-27T12:02:09.643Z,0.64
2018-12-27T12:03:09.653Z,0.52
2018-12-27T12:04:09.610Z,0.62
2018-12-27T12:05:09.587Z,0.71
2018-12-27T12:06:09.576Z,0.70
2018-12-27T12:07:09.565Z,0.62
2018-12-27T12:08:09.557Z,0.68
2018-12-27T12:09:09.592Z,0.72
2018-12-27T12:10:09.535Z,1.07
2018-12-27T12:11:09.524Z,1.11
2018-12-27T12:12:09.612Z,1.13
2018-12-27T12:13:09.528Z,0.96
2018-12-27T12:14:09.523Z,1.00
2018-12-27T12:15:09.489Z,0.95
2018-12-27T12:16:09.472Z,0.99
2018-12-27T12:17:09.461Z,0.90
2018-12-27T12:18:09.486Z,1.04
2018-12-27T12:19:09.451Z,0.96
2018-12-27T12:20:09.441Z,0.95
2018-12-27T12:21:09.420Z,1.00
2018-12-27T12:22:09.406Z,1.10
2018-12-27T12:23:09.435Z,1.11
2018-12-27T12:24:09.387Z,1.04
2018-12-27T12:25:09.404Z,1.00
2018-12-27T12:26:09.376Z,0.71
2018-12-27T12:27:09.380Z,0.70
2018-12-27T12:28:09.383Z,0.70
2018-12-27T12:29:09.360Z,0.63
2018-12-27T12:30:09.386Z,0.51
2018-12-27T12:31:09.323Z,0.43
2018-12-27T12:32:09.301Z,0.53
2018-12-27T12:33:09.317Z,0.68
2018-12-27T12:34:09.281Z,0.71
2018-12-27T12:35:09.285Z,0.80
2018-12-27T12:36:10.894Z,0.67
2018-12-27T12:37:14.033Z,0.60
2018-12-27T12:38:10.269Z,0.72
2018-12-27T12:39:09.239Z,0.77
2018-12-27T12:40:09.260Z,0.64
2018-12-27T12:41:09.209Z,0.41
2018-12-27T12:42:09.194Z,0.56
2018-12-27T12:43:09.186Z,0.57
2018-12-27T12:44:09.201Z,0.64
2018-12-27T12:45:09.185Z,0.62
2018-12-27T12:46:09.160Z,0.80
2018-12-27T12:47:09.177Z,0.88
2018-12-27T12:48:09.155Z,0.95
2018-12-27T12:49:09.168Z,0.82
2018-12-27T12:50:09.132Z,0.71
2018-12-27T12:51:09.185Z,0.70
2018-12-27T12:52:09.089Z,0.88
2018-12-27T12:53:09.083Z,0.86
2018-12-27T12:54:09.092Z,0.89
2018-12-27T12:55:09.079Z,0.81
2018-12-27T12:56:09.047Z,0.78